createdAt,value
2017-11-06T00:03:18.840Z,6.30
2017-11-06T00:08:19.817Z,6.20
2017-11-06T00:13:21.515Z,6.40
2017-11-06T00:18:22.503Z,6.30
2017-11-06T00:23:24.252Z,6.30
2017-11-06T00:28:25.225Z,6.20
2017-11-06T00:33:26.195Z,6.30
2017-11-06T00:38:27.153Z,6.20
2017-11-06T00:43:28.970Z,6.20
2017-11-06T00:48:29.946Z,6.10
2017-11-06T00:53:30.962Z,6.10
2017-11-06T00:58:31.925Z,6.10
2017-11-06T01:03:32.902Z,6.10
2017-11-06T01:08:33.895Z,6.10
2017-11-06T01:13:35.017Z,6.20
2017-11-06T01:18:36.097Z,6.10
2017-11-06T01:23:37.098Z,6.10
2017-11-06T01:28:38.825Z,6.00
2017-11-06T01:33:39.901Z,6.00
2017-11-06T01:38:40.997Z,6.00
2017-11-06T01:43:41.994Z,6.00
2017-11-06T01:48:42.986Z,5.90
2017-11-06T01:53:44.118Z,6.00
2017-11-06T01:58:45.307Z,5.90
2017-11-06T02:03:46.354Z,5.80
2017-11-06T02:08:47.413Z,5.90
2017-11-06T02:13:48.414Z,5.80
2017-11-06T02:18:49.401Z,5.70
2017-11-06T02:23:50.410Z,5.60
2017-11-06T02:28:51.422Z,5.70
2017-11-06T02:33:52.417Z,5.50
2017-11-06T02:38:53.457Z,5.50
2017-11-06T02:43:55.319Z,5.40
2017-11-06T02:48:56.342Z,5.40
2017-11-06T02:53:57.434Z,5.30
2017-11-06T02:58:59.170Z,5.30
2017-11-06T03:04:00.266Z,5.20
2017-11-06T03:09:02.165Z,5.20
2017-11-06T03:14:03.286Z,5.10
2017-11-06T03:19:05.259Z,5.00
2017-11-06T03:24:06.338Z,4.90
2017-11-06T03:29:08.551Z,5.00
2017-11-06T03:34:09.668Z,4.80
2017-11-06T03:39:10.690Z,4.80
2017-11-06T03:44:12.482Z,4.80
2017-11-06T03:49:14.214Z,4.90
2017-11-06T03:54:15.198Z,4.80
2017-11-06T03:59:16.206Z,4.80
2017-11-06T04:04:17.186Z,4.80
2017-11-06T04:09:18.170Z,4.70
2017-11-06T04:14:19.150Z,4.60
2017-11-06T04:19:20.178Z,4.70
2017-11-06T04:24:21.893Z,4.60
2017-11-06T04:29:22.898Z,4.50
2017-11-06T04:34:24.002Z,4.50
2017-11-06T04:39:25.072Z,4.30
2017-11-06T04:44:26.177Z,4.20
2017-11-06T04:49:27.165Z,4.10
2017-11-06T04:54:28.135Z,4.10
2017-11-06T04:59:29.137Z,4.00
2017-11-06T05:04:30.864Z,3.80
2017-11-06T05:09:31.877Z,3.80
2017-11-06T05:14:32.894Z,3.70
2017-11-06T05:19:34.021Z,3.70
2017-11-06T05:24:35.062Z,3.70
2017-11-06T05:29:37.004Z,3.50
2017-11-06T05:34:38.126Z,3.50
2017-11-06T05:39:39.144Z,3.60
2017-11-06T05:44:40.141Z,3.40
2017-11-06T05:49:41.179Z,3.40
2017-11-06T05:54:42.173Z,3.20
2017-11-06T05:59:43.198Z,3.30
2017-11-06T06:04:44.226Z,3.30
2017-11-06T06:09:45.317Z,3.30
2017-11-06T06:14:46.330Z,3.20
2017-11-06T06:19:47.382Z,3.10
2017-11-06T06:24:48.378Z,3.20
2017-11-06T06:29:49.345Z,3.20
2017-11-06T06:34:50.418Z,3.20
2017-11-06T06:39:51.397Z,3.20
2017-11-06T06:44:52.363Z,3.20
2017-11-06T06:49:53.350Z,3.20
2017-11-06T06:54:54.375Z,3.30
2017-11-06T06:59:55.386Z,3.30
2017-11-06T07:04:57.086Z,3.40
2017-11-06T07:09:58.792Z,3.50
2017-11-06T07:14:59.823Z,3.50
2017-11-06T07:20:00.848Z,3.70
2017-11-06T07:25:01.918Z,4.10
2017-11-06T07:30:02.882Z,4.00
2017-11-06T07:35:03.862Z,4.00
2017-11-06T07:40:04.941Z,4.00
2017-11-06T07:45:05.974Z,4.00
2017-11-06T07:50:06.994Z,4.10
2017-11-06T07:55:07.980Z,4.40
2017-11-06T08:00:08.962Z,4.50
2017-11-06T08:05:09.988Z,4.60
2017-11-06T08:10:10.956Z,6.20
2017-11-06T08:15:11.925Z,7.40
2017-11-06T08:20:12.893Z,8.20
2017-11-06T08:25:13.865Z,9.00
2017-11-06T08:30:14.829Z,9.40
2017-11-06T08:35:15.802Z,10.00
2017-11-06T08:40:17.510Z,11.30
2017-11-06T08:45:18.469Z,11.20
2017-11-06T08:50:20.185Z,12.20
2017-11-06T08:55:21.161Z,12.20
2017-11-06T09:00:22.878Z,12.20
2017-11-06T09:05:23.856Z,12.20
2017-11-06T09:10:24.828Z,12.80
2017-11-06T09:15:26.525Z,12.00
2017-11-06T09:20:28.233Z,10.40
2017-11-06T09:25:29.193Z,10.30
2017-11-06T09:30:30.895Z,12.80
2017-11-06T09:35:32.608Z,13.00
2017-11-06T09:40:33.577Z,13.00
2017-11-06T09:45:35.318Z,12.50
2017-11-06T09:50:36.437Z,12.40
2017-11-06T09:55:37.495Z,13.20
2017-11-06T10:00:38.588Z,12.00
2017-11-06T10:05:39.613Z,11.80
2017-11-06T10:10:41.392Z,10.90
2017-11-06T10:15:42.393Z,10.80
2017-11-06T10:20:43.417Z,10.30
2017-11-06T10:25:44.421Z,10.60
2017-11-06T10:30:45.457Z,10.20
2017-11-06T10:35:46.568Z,9.30
2017-11-06T10:40:47.593Z,9.20
2017-11-06T10:45:48.654Z,9.50
2017-11-06T10:50:49.719Z,9.40
2017-11-06T10:55:50.802Z,8.80
2017-11-06T11:00:52.014Z,9.10
2017-11-06T11:05:53.145Z,8.80
2017-11-06T11:10:55.153Z,8.60
2017-11-06T11:15:56.225Z,8.50
2017-11-06T11:20:57.986Z,8.70
2017-11-06T11:25:58.966Z,8.60
2017-11-06T11:30:59.937Z,8.60
2017-11-06T11:36:00.910Z,8.70
2017-11-06T11:41:01.898Z,8.70
2017-11-06T11:46:02.877Z,8.70
2017-11-06T11:51:03.853Z,8.70
2017-11-06T11:56:04.913Z,8.90
2017-11-06T12:01:06.706Z,8.60
2017-11-06T12:06:13.877Z,8.60
2017-11-06T12:11:14.959Z,8.80
2017-11-06T12:16:15.925Z,8.50
2017-11-06T12:21:16.910Z,8.20
2017-11-06T12:26:17.889Z,8.30
2017-11-06T12:31:18.959Z,8.50
2017-11-06T12:36:20.693Z,9.00
2017-11-06T12:41:21.669Z,8.90
2017-11-06T12:46:22.637Z,9.00
2017-11-06T12:51:23.613Z,8.90
2017-11-06T12:56:24.629Z,8.70
2017-11-06T13:01:25.628Z,8.70
2017-11-06T13:06:26.707Z,8.70
2017-11-06T13:11:27.838Z,8.70
2017-11-06T13:16:28.821Z,8.60
2017-11-06T13:21:30.561Z,8.70
2017-11-06T13:26:31.541Z,8.60
2017-11-06T13:31:32.669Z,8.60
2017-11-06T13:36:33.648Z,8.90
2017-11-06T13:41:35.453Z,8.80
2017-11-06T13:46:37.303Z,8.50
2017-11-06T13:51:38.317Z,8.50
2017-11-06T13:56:39.373Z,8.40
2017-11-06T14:01:40.481Z,8.40
2017-11-06T14:06:41.513Z,8.30
2017-11-06T14:11:42.517Z,8.30
2017-11-06T14:16:43.518Z,8.30
2017-11-06T14:21:45.281Z,8.20
2017-11-06T14:26:46.244Z,8.20
2017-11-06T14:31:48.049Z,8.20
2017-11-06T14:36:49.869Z,8.20
2017-11-06T14:41:51.743Z,8.20
2017-11-06T14:46:53.505Z,8.20
2017-11-06T14:51:54.515Z,8.20
2017-11-06T14:56:55.506Z,8.20
2017-11-06T15:01:56.480Z,8.20
2017-11-06T15:06:57.466Z,8.10
2017-11-06T15:11:58.469Z,8.10
2017-11-06T15:17:00.189Z,8.00
2017-11-06T15:22:01.157Z,7.90
2017-11-06T15:27:02.129Z,7.80
2017-11-06T15:32:03.461Z,7.70
2017-11-06T15:37:04.461Z,7.70
2017-11-06T15:42:05.528Z,7.60
2017-11-06T15:47:06.749Z,7.60
2017-11-06T15:52:08.517Z,7.40
2017-11-06T15:57:09.503Z,7.40
2017-11-06T16:02:10.505Z,7.60
2017-11-06T16:07:11.557Z,8.60
2017-11-06T16:12:12.659Z,7.40
2017-11-06T16:17:13.674Z,7.00
2017-11-06T16:22:15.669Z,6.60
2017-11-06T16:27:16.648Z,6.50
2017-11-06T16:32:17.622Z,6.50
2017-11-06T16:37:18.621Z,6.40
2017-11-06T16:42:19.605Z,6.40
2017-11-06T16:47:20.586Z,6.30
2017-11-06T16:52:21.569Z,6.20
2017-11-06T16:57:22.553Z,6.50
2017-11-06T17:02:23.678Z,6.40
2017-11-06T17:07:24.649Z,6.30
2017-11-06T17:12:25.747Z,6.30
2017-11-06T17:17:26.806Z,6.20
2017-11-06T17:22:28.538Z,6.10
2017-11-06T17:27:29.513Z,6.10
2017-11-06T17:32:30.545Z,6.10
2017-11-06T17:37:31.631Z,6.10
2017-11-06T17:42:34.706Z,5.80
2017-11-06T17:47:35.798Z,5.60
2017-11-06T17:52:36.881Z,5.20
2017-11-06T17:57:37.941Z,5.20
2017-11-06T18:02:38.955Z,5.40
2017-11-06T18:07:40.047Z,5.30
2017-11-06T18:12:41.683Z,5.30
2017-11-06T18:17:42.694Z,5.10
2017-11-06T18:22:44.513Z,4.90
2017-11-06T18:27:45.573Z,4.80
2017-11-06T18:32:47.310Z,4.90
2017-11-06T18:37:48.281Z,4.80
2017-11-06T18:42:49.978Z,4.80
2017-11-06T18:47:51.039Z,4.70
2017-11-06T18:52:52.830Z,4.40
2017-11-06T18:57:55.083Z,4.40
2017-11-06T19:02:56.257Z,4.30
2017-11-06T19:07:57.333Z,4.50
2017-11-06T19:12:58.326Z,4.30
2017-11-06T19:17:59.334Z,4.30
2017-11-06T19:23:00.402Z,4.20
2017-11-06T19:28:01.386Z,4.20
2017-11-06T19:33:03.532Z,4.10
2017-11-06T19:38:04.522Z,4.00
2017-11-06T19:43:05.562Z,4.00
2017-11-06T19:48:06.633Z,4.00
2017-11-06T19:53:07.715Z,3.90
2017-11-06T19:58:08.724Z,3.80
2017-11-06T20:03:09.834Z,3.80
2017-11-06T20:08:11.875Z,3.70
2017-11-06T20:13:12.925Z,3.70
2017-11-06T20:18:14.075Z,3.60
2017-11-06T20:23:15.077Z,3.50
2017-11-06T20:28:16.098Z,3.50
2017-11-06T20:33:17.892Z,3.30
2017-11-06T20:38:18.870Z,3.20
2017-11-06T20:43:20.626Z,3.30
2017-11-06T20:48:21.609Z,3.20
2017-11-06T20:53:22.590Z,3.20
2017-11-06T20:58:23.629Z,3.20
2017-11-06T21:03:25.381Z,3.00
2017-11-06T21:08:26.381Z,2.90
2017-11-06T21:13:27.366Z,3.00
2017-11-06T21:18:28.583Z,2.90
2017-11-06T21:23:29.660Z,2.90
2017-11-06T21:28:30.717Z,2.90
2017-11-06T21:33:31.697Z,2.80
2017-11-06T21:38:32.665Z,2.80
2017-11-06T21:43:33.665Z,2.70
2017-11-06T21:48:34.649Z,2.60
2017-11-06T21:53:35.674Z,2.60
2017-11-06T21:58:36.729Z,2.60
2017-11-06T22:03:37.910Z,2.50
2017-11-06T22:08:39.670Z,2.50
2017-11-06T22:13:40.668Z,2.40
2017-11-06T22:18:41.657Z,2.40
2017-11-06T22:23:42.634Z,2.30
2017-11-06T22:28:43.625Z,2.40
2017-11-06T22:33:44.591Z,2.30
2017-11-06T22:38:45.565Z,2.30
2017-11-06T22:43:46.558Z,2.30
2017-11-06T22:48:47.542Z,2.20
2017-11-06T22:53:48.518Z,2.20
2017-11-06T22:58:49.529Z,2.00
2017-11-06T23:03:50.522Z,1.90
2017-11-06T23:08:51.480Z,1.80
2017-11-06T23:13:52.453Z,1.50
2017-11-06T23:18:53.501Z,1.60
2017-11-06T23:23:54.773Z,1.60
2017-11-06T23:28:55.842Z,1.50
2017-11-06T23:33:56.877Z,1.60
2017-11-06T23:38:58.028Z,1.60
2017-11-06T23:43:59.734Z,1.60
2017-11-06T23:49:01.453Z,1.60
2017-11-06T23:54:14.657Z,1.50
2017-11-06T23:59:15.633Z,1.60
